< < Back
Terminal Aerodrome Forecast


Current Version              Previous Versions:   1  2  3  4  5  6  7  8  9  

Terminal Aerodrome Forecast

675
FTUS42 KFFC 240730 AAA
TAFATL
TAF AMD
KATL 240730Z 2408/2512 14007KT P6SM SCT250
     FM240900 12005KT P6SM SCT020
     FM241500 13009G14KT P6SM SCT035
     FM241900 11012G19KT P6SM SCT050
     FM250100 11010KT P6SM FEW080
     FM250800 13009G14KT P6SM BKN012=

Latest METAR

300
SAUS70 KWBC 241100
MTRATL
METAR KATL 241052Z 10007KT 10SM BKN250 17/14 A3034 RMK AO2 SLP267
T01720139


USA.gov is the U.S. government's official web portal to all federal, state and local government web resources and services.